Time;durP1;ratioP1;P1;durP2;ratioP2;P2;SDS_P1;SDS_P2;PMS_P1;PMS_P2;Temp;Humidity;BMP_temperature;BMP_pressure;BME280_temperature;BME280_humidity;BME280_pressure;Samples;Min_cycle;Max_cycle;Signal;HPM_P1;HPM_P2
2024/03/13 00:00:39;;;;;;;;;;;;;;;7.42;100.00;99092.84;5054693;28;819;-60
2024/03/13 00:03:08;;;;;;;;;;;;;;;7.28;100.00;99099.97;5054517;28;860;-59
2024/03/13 00:05:35;;;;;;;;;;;;;;;7.18;100.00;99100.78;5054562;28;910;-59
2024/03/13 00:08:01;;;;;;;;;;;;;;;7.15;100.00;99102.34;5054687;28;828;-60
2024/03/13 00:10:28;;;;;;;;;;;;;;;7.21;100.00;99090.94;5054429;28;1953;-59
2024/03/13 00:12:56;;;;;;;;;;;;;;;7.28;100.00;99096.44;5054394;28;1214;-59
2024/03/13 00:15:22;;;;;;;;;;;;;;;7.47;100.00;99087.72;5054526;28;820;-59
2024/03/13 00:17:49;;;;;;;;;;;;;;;7.64;100.00;99091.59;5054245;28;859;-58
2024/03/13 00:20:16;;;;;;;;;;;;;;;7.76;100.00;99090.34;5054525;28;875;-59
2024/03/13 00:22:44;;;;;;;;;;;;;;;7.81;100.00;99080.88;5054200;28;851;-60
2024/03/13 00:25:11;;;;;;;;;;;;;;;7.87;100.00;99079.28;5054196;28;848;-60
2024/03/13 00:27:39;;;;;;;;;;;;;;;7.90;100.00;99084.00;5054100;28;863;-59
2024/03/13 00:30:08;;;;;;;;;;;;;;;7.95;100.00;99076.09;5053994;28;1918;-59
2024/03/13 00:32:35;;;;;;;;;;;;;;;7.98;100.00;99074.53;5054189;28;907;-59
2024/03/13 00:35:04;;;;;;;;;;;;;;;8.01;100.00;99070.19;5054260;28;1179;-59
2024/03/13 00:37:31;;;;;;;;;;;;;;;8.06;100.00;99065.00;5054006;28;931;-59
2024/03/13 00:39:58;;;;;;;;;;;;;;;8.07;100.00;99066.59;5053822;28;856;-60
2024/03/13 00:42:26;;;;;;;;;;;;;;;8.04;100.00;99067.38;5053951;28;923;-59
2024/03/13 00:44:53;;;;;;;;;;;;;;;7.99;100.00;99073.31;5053738;28;832;-60
2024/03/13 00:47:24;;;;;;;;;;;;;;;7.85;100.00;99079.69;5054044;28;891;-59
2024/03/13 00:50:20;;;;;;;;;;;;;;;7.74;100.00;99079.72;5053644;28;856;-59
2024/03/13 00:52:47;;;;;;;;;;;;;;;7.66;100.00;99069.97;5053552;28;887;-59
2024/03/13 00:55:13;;;;;;;;;;;;;;;7.57;100.00;99072.34;5053651;28;888;-60
2024/03/13 00:57:41;;;;;;;;;;;;;;;7.53;100.00;99080.63;5053388;28;876;-60
2024/03/13 01:00:10;;;;;;;;;;;;;;;7.56;100.00;99068.06;5053564;28;836;-59
2024/03/13 01:02:56;;;;;;;;;;;;;;;7.62;100.00;99073.91;5053421;28;828;-59
2024/03/13 01:05:24;;;;;;;;;;;;;;;7.59;100.00;99071.97;5035402;28;1267;-59
2024/03/13 01:07:51;;;;;;;;;;;;;;;7.53;100.00;99069.63;5053223;28;892;-59
2024/03/13 01:10:19;;;;;;;;;;;;;;;7.50;100.00;99064.91;5052189;28;1949;-59
2024/03/13 01:12:46;;;;;;;;;;;;;;;7.48;100.00;99070.03;5053200;28;1171;-59
2024/03/13 01:15:14;;;;;;;;;;;;;;;7.43;100.00;99067.72;5053260;28;843;-59
2024/03/13 01:17:42;;;;;;;;;;;;;;;7.36;100.00;99073.22;5053164;28;847;-59
2024/03/13 01:20:09;;;;;;;;;;;;;;;7.29;100.00;99067.75;5053432;28;871;-59
2024/03/13 01:22:37;;;;;;;;;;;;;;;7.11;100.00;99065.06;5052999;28;875;-59
2024/03/13 01:25:05;;;;;;;;;;;;;;;6.84;100.00;99062.75;5035391;28;915;-59
2024/03/13 01:27:32;;;;;;;;;;;;;;;6.77;100.00;99065.53;5053036;28;1103;-59
2024/03/13 01:29:58;;;;;;;;;;;;;;;6.80;100.00;99072.19;5053047;28;1969;-59
2024/03/13 01:32:25;;;;;;;;;;;;;;;6.86;100.00;99071.41;5035061;28;1305;-59
2024/03/13 01:34:52;;;;;;;;;;;;;;;6.93;100.00;99056.84;5052677;28;1297;-59
2024/03/13 01:40:06;;;;;;;;;;;;;;;7.01;100.00;99063.91;5053006;28;654;-59
2024/03/13 01:56:38;;;;;;;;;;;;;;;7.11;100.00;99043.88;5052787;28;630;-59
2024/03/13 01:59:19;;;;;;;;;;;;;;;7.18;100.00;99043.06;5052440;28;894;-59
2024/03/13 02:04:31;;;;;;;;;;;;;;;7.33;100.00;99038.28;5052554;28;794;-59
2024/03/13 02:06:59;;;;;;;;;;;;;;;7.40;100.00;99038.25;5052070;28;950;-59
2024/03/13 02:09:26;;;;;;;;;;;;;;;7.45;100.00;99024.09;5052233;28;903;-58
2024/03/13 02:11:53;;;;;;;;;;;;;;;7.48;100.00;99026.03;5052192;28;1939;-59
2024/03/13 02:14:20;;;;;;;;;;;;;;;7.51;100.00;99022.50;5051686;28;1261;-59
2024/03/13 02:16:53;;;;;;;;;;;;;;;7.57;100.00;99014.59;5051919;28;923;-58
2024/03/13 02:19:21;;;;;;;;;;;;;;;7.62;100.00;99022.44;5052171;28;848;-58
2024/03/13 02:21:48;;;;;;;;;;;;;;;7.67;100.00;99018.50;5033977;28;1216;-58
2024/03/13 02:24:16;;;;;;;;;;;;;;;7.72;100.00;99009.81;5052066;28;856;-58
2024/03/13 02:26:43;;;;;;;;;;;;;;;7.75;100.00;99009.00;5051943;28;871;-59
2024/03/13 02:29:12;;;;;;;;;;;;;;;7.78;100.00;99008.97;5051819;28;855;-59
2024/03/13 02:31:39;;;;;;;;;;;;;;;7.81;100.00;99012.09;5051939;28;1906;-59
2024/03/13 02:34:07;;;;;;;;;;;;;;;7.79;100.00;99007.03;5051940;28;942;-59
2024/03/13 02:36:34;;;;;;;;;;;;;;;7.81;100.00;99003.84;5051830;28;879;-59
2024/03/13 02:39:01;;;;;;;;;;;;;;;7.80;100.00;98999.56;5051930;28;859;-59
2024/03/13 02:41:28;;;;;;;;;;;;;;;7.77;100.00;99001.91;5051999;28;804;-59
2024/03/13 02:43:57;;;;;;;;;;;;;;;7.75;100.00;99001.53;5051746;28;831;-58
2024/03/13 02:46:24;;;;;;;;;;;;;;;7.75;100.00;99000.75;5051499;28;1250;-59
2024/03/13 02:48:51;;;;;;;;;;;;;;;7.78;100.00;99003.47;5051795;28;887;-59
2024/03/13 02:51:18;;;;;;;;;;;;;;;7.84;100.00;99003.06;5051520;28;1890;-59
2024/03/13 02:53:45;;;;;;;;;;;;;;;7.85;100.00;98997.16;5051951;28;878;-59
2024/03/13 02:56:12;;;;;;;;;;;;;;;7.86;100.00;98998.72;5051530;28;876;-59
2024/03/13 02:58:39;;;;;;;;;;;;;;;7.87;100.00;98999.50;5051632;28;812;-59
2024/03/13 03:01:06;;;;;;;;;;;;;;;7.87;100.00;98994.78;5051576;28;862;-59
2024/03/13 03:03:33;;;;;;;;;;;;;;;7.89;100.00;99006.16;5051628;28;918;-59
2024/03/13 03:06:03;;;;;;;;;;;;;;;7.86;100.00;99006.19;5051732;28;918;-59
2024/03/13 03:08:32;;;;;;;;;;;;;;;7.82;100.00;99006.22;5051384;28;920;-59
2024/03/13 03:10:58;;;;;;;;;;;;;;;7.80;100.00;99011.31;5051259;28;2188;-59
2024/03/13 03:13:26;;;;;;;;;;;;;;;7.76;100.00;99016.06;5051252;28;1239;-58
2024/03/13 03:15:53;;;;;;;;;;;;;;;7.76;100.00;99011.34;5051472;28;840;-58
2024/03/13 03:18:20;;;;;;;;;;;;;;;7.78;100.00;99008.19;5051261;28;864;-58
2024/03/13 03:20:47;;;;;;;;;;;;;;;7.68;100.00;99012.59;5051428;28;899;-58
2024/03/13 03:23:15;;;;;;;;;;;;;;;7.61;100.00;99009.88;5051356;28;1279;-58
2024/03/13 03:25:42;;;;;;;;;;;;;;;7.54;100.00;99021.69;5051373;28;824;-58
2024/03/13 03:28:11;;;;;;;;;;;;;;;7.51;100.00;99011.50;5051230;28;833;-59
2024/03/13 03:30:41;;;;;;;;;;;;;;;7.50;100.00;99018.19;5050940;28;1914;-58
2024/03/13 03:33:15;;;;;;;;;;;;;;;7.50;100.00;99020.94;5051534;28;947;-58
2024/03/13 03:35:43;;;;;;;;;;;;;;;7.52;100.00;99029.56;5055165;28;860;-57
2024/03/13 03:38:11;;;;;;;;;;;;;;;7.50;100.00;99011.91;5055125;28;947;-56
2024/03/13 03:40:37;;;;;;;;;;;;;;;7.48;100.00;99017.03;5055202;28;903;-56
2024/03/13 03:43:04;;;;;;;;;;;;;;;7.49;100.00;99018.56;5055060;28;906;-53
2024/03/13 03:45:32;;;;;;;;;;;;;;;7.48;100.00;99023.28;5054958;28;820;-57
2024/03/13 03:47:58;;;;;;;;;;;;;;;7.50;100.00;99022.91;5054877;28;947;-53
2024/03/13 03:50:25;;;;;;;;;;;;;;;7.50;100.00;99025.66;5054710;28;1949;-55
2024/03/13 03:52:52;;;;;;;;;;;;;;;7.50;100.00;99022.91;5054896;28;835;-55
2024/03/13 03:55:19;;;;;;;;;;;;;;;7.52;100.00;99031.53;5054764;28;828;-55
2024/03/13 03:57:46;;;;;;;;;;;;;;;7.55;100.00;99034.28;5054611;28;887;-57
2024/03/13 04:00:14;;;;;;;;;;;;;;;7.57;100.00;99026.41;5054476;28;908;-52
2024/03/13 04:02:42;;;;;;;;;;;;;;;7.67;100.00;99024.75;5054996;28;820;-55
2024/03/13 04:05:08;;;;;;;;;;;;;;;7.76;100.00;99029.81;5054650;28;851;-57
2024/03/13 04:07:39;;;;;;;;;;;;;;;7.77;100.00;99034.16;5054616;28;881;-58
2024/03/13 04:10:05;;;;;;;;;;;;;;;7.76;100.00;99033.34;5054613;28;1885;-57
2024/03/13 04:12:33;;;;;;;;;;;;;;;7.76;100.00;99027.06;5054413;28;1412;-59
2024/03/13 04:15:03;;;;;;;;;;;;;;;7.74;100.00;99024.72;5054174;28;869;-59
2024/03/13 04:17:29;;;;;;;;;;;;;;;7.72;100.00;99026.31;5054417;28;828;-60
2024/03/13 04:19:57;;;;;;;;;;;;;;;7.70;100.00;99026.72;5054242;28;871;-62
2024/03/13 04:22:26;;;;;;;;;;;;;;;7.67;100.00;99024.75;5054222;28;896;-59
2024/03/13 04:24:52;;;;;;;;;;;;;;;7.66;100.00;99028.72;5054168;28;836;-59
2024/03/13 04:27:19;;;;;;;;;;;;;;;7.64;100.00;99030.28;5054132;28;923;-60
2024/03/13 04:29:46;;;;;;;;;;;;;;;7.63;100.00;99032.25;5054180;28;837;-61
2024/03/13 04:32:12;;;;;;;;;;;;;;;7.63;100.00;99032.25;5053982;28;1977;-60
2024/03/13 04:34:38;;;;;;;;;;;;;;;7.64;100.00;99033.03;5054036;28;911;-60
2024/03/13 04:37:05;;;;;;;;;;;;;;;7.64;100.00;99038.53;5053947;28;875;-60
2024/03/13 04:39:32;;;;;;;;;;;;;;;7.63;100.00;99028.72;5053954;28;992;-58
2024/03/13 04:41:59;;;;;;;;;;;;;;;7.63;100.00;99031.47;5053669;28;904;-58
2024/03/13 04:44:28;;;;;;;;;;;;;;;7.64;100.00;99024.78;5053568;28;943;-60
2024/03/13 04:46:54;;;;;;;;;;;;;;;7.64;100.00;99028.34;5053640;28;898;-60
2024/03/13 04:49:21;;;;;;;;;;;;;;;7.65;100.00;99031.84;5053887;28;844;-59
2024/03/13 04:51:48;;;;;;;;;;;;;;;7.67;100.00;99029.50;5053823;28;1886;-59
2024/03/13 04:54:16;;;;;;;;;;;;;;;7.68;100.00;99031.03;5053620;28;855;-59
2024/03/13 04:56:44;;;;;;;;;;;;;;;7.68;100.00;99031.84;5053433;28;911;-61
2024/03/13 04:59:11;;;;;;;;;;;;;;;7.69;100.00;99032.63;5053543;28;824;-60
2024/03/13 05:01:38;;;;;;;;;;;;;;;7.71;100.00;99025.53;5053484;28;816;-60
2024/03/13 05:04:04;;;;;;;;;;;;;;;7.74;100.00;99027.47;5053436;28;895;-62
2024/03/13 05:06:30;;;;;;;;;;;;;;;7.79;100.00;99031.78;5053450;28;847;-65
2024/03/13 05:08:57;;;;;;;;;;;;;;;7.83;100.00;99037.25;5053242;28;1041;-61
2024/03/13 05:11:24;;;;;;;;;;;;;;;7.87;100.00;99027.81;5053384;28;1952;-63
2024/03/13 05:13:50;;;;;;;;;;;;;;;7.91;100.00;99031.28;5052974;28;1241;-60
2024/03/13 05:16:18;;;;;;;;;;;;;;;7.97;100.00;99023.41;5053396;28;819;-60
2024/03/13 05:18:45;;;;;;;;;;;;;;;8.01;100.00;99031.66;5053029;28;888;-61
2024/03/13 05:21:12;;;;;;;;;;;;;;;7.98;100.00;99027.75;5053288;28;922;-62
2024/03/13 05:23:39;;;;;;;;;;;;;;;7.91;100.00;99031.28;5053342;28;839;-60
2024/03/13 05:26:06;;;;;;;;;;;;;;;7.87;100.00;99036.06;5053169;28;851;-61
2024/03/13 05:28:33;;;;;;;;;;;;;;;7.89;100.00;99030.91;5052992;28;816;-62
2024/03/13 05:30:59;;;;;;;;;;;;;;;7.92;100.00;99034.84;5052899;28;1941;-61
2024/03/13 05:33:25;;;;;;;;;;;;;;;7.94;100.00;99035.22;5052813;28;847;-59
2024/03/13 05:35:51;;;;;;;;;;;;;;;7.94;100.00;99036.00;5052789;28;871;-60
2024/03/13 05:38:18;;;;;;;;;;;;;;;7.97;100.00;99040.69;5052732;28;867;-59
2024/03/13 05:40:45;;;;;;;;;;;;;;;8.00;100.00;99039.13;5052752;28;907;-59
2024/03/13 05:43:12;;;;;;;;;;;;;;;8.05;100.00;99046.94;5052624;28;876;-59
2024/03/13 05:45:38;;;;;;;;;;;;;;;8.10;100.00;99048.47;5052488;28;876;-59
2024/03/13 05:48:06;;;;;;;;;;;;;;;8.09;100.00;99046.94;5052624;28;922;-59
2024/03/13 05:50:34;;;;;;;;;;;;;;;8.08;100.00;99048.88;5052383;28;1898;-59
2024/03/13 05:53:00;;;;;;;;;;;;;;;8.07;100.00;99058.34;5052520;28;950;-58
2024/03/13 05:55:26;;;;;;;;;;;;;;;8.07;100.00;99052.06;5052201;28;881;-58
2024/03/13 05:57:54;;;;;;;;;;;;;;;8.09;100.00;99066.19;5052086;28;867;-58
2024/03/13 06:00:22;;;;;;;;;;;;;;;8.16;100.00;99066.13;5052319;28;895;-58
2024/03/13 06:02:49;;;;;;;;;;;;;;;8.19;100.00;99059.81;5052261;28;880;-59
2024/03/13 06:05:16;;;;;;;;;;;;;;;8.21;100.00;99062.94;5034429;28;833;-59
2024/03/13 06:07:43;;;;;;;;;;;;;;;8.24;100.00;99067.66;5052046;28;914;-59
2024/03/13 06:10:10;;;;;;;;;;;;;;;8.26;100.00;99054.28;5034182;28;1906;-60
2024/03/13 06:12:37;;;;;;;;;;;;;;;8.31;100.00;99059.31;5052189;28;1268;-60
2024/03/13 06:15:08;;;;;;;;;;;;;;;8.36;100.00;99063.63;5052289;28;923;-60
2024/03/13 06:17:34;;;;;;;;;;;;;;;8.42;100.00;99062.03;5052047;28;831;-60
2024/03/13 06:20:03;;;;;;;;;;;;;;;8.48;100.00;99056.88;5052075;28;855;-59
2024/03/13 06:22:30;;;;;;;;;;;;;;;8.58;100.00;99062.28;5051970;28;866;-59
2024/03/13 06:25:00;;;;;;;;;;;;;;;8.53;100.00;99065.47;5052006;28;872;-59
2024/03/13 06:27:29;;;;;;;;;;;;;;;8.52;100.00;99065.91;5052229;28;852;-59
2024/03/13 06:29:57;;;;;;;;;;;;;;;8.59;100.00;99068.56;5051965;28;911;-59
2024/03/13 06:32:28;;;;;;;;;;;;;;;8.68;100.00;99071.63;5052063;28;1906;-59
2024/03/13 06:34:55;;;;;;;;;;;;;;;8.77;100.00;99076.69;5051907;28;843;-59
2024/03/13 06:37:25;;;;;;;;;;;;;;;8.74;100.00;99072.00;5051714;28;805;-59
2024/03/13 06:39:58;;;;;;;;;;;;;;;8.90;100.00;99079.72;5051778;28;884;-59
2024/03/13 06:42:25;;;;;;;;;;;;;;;9.10;100.00;99082.66;5051657;28;1265;-58
2024/03/13 06:44:52;;;;;;;;;;;;;;;9.29;100.00;99082.06;5051594;28;978;-58
2024/03/13 06:47:19;;;;;;;;;;;;;;;9.29;100.00;99078.53;5051676;28;863;-58
2024/03/13 06:49:45;;;;;;;;;;;;;;;9.26;100.00;99077.38;5051607;28;930;-58
2024/03/13 06:52:14;;;;;;;;;;;;;;;9.40;100.00;99084.69;5051610;28;1902;-58
2024/03/13 06:54:41;;;;;;;;;;;;;;;9.55;100.00;99083.31;5051672;28;879;-58
2024/03/13 06:57:12;;;;;;;;;;;;;;;9.75;100.00;99085.44;5051845;28;812;-57
2024/03/13 06:59:39;;;;;;;;;;;;;;;9.96;100.00;99085.19;5051493;28;895;-57
2024/03/13 07:02:06;;;;;;;;;;;;;;;10.02;100.00;99091.00;5051559;28;879;-57
2024/03/13 07:04:32;;;;;;;;;;;;;;;10.14;100.00;99089.66;5051468;28;1301;-57
2024/03/13 07:06:59;;;;;;;;;;;;;;;10.10;100.00;99094.44;5051504;28;809;-57
2024/03/13 07:09:28;;;;;;;;;;;;;;;10.01;100.00;99097.72;5054171;28;824;-57
2024/03/13 07:11:55;;;;;;;;;;;;;;;9.99;100.00;99100.91;5055744;28;1960;-57
2024/03/13 07:14:22;;;;;;;;;;;;;;;10.07;100.00;99098.03;5055191;28;1327;-57
2024/03/13 07:16:48;;;;;;;;;;;;;;;10.14;100.00;99097.94;5055590;28;871;-57
2024/03/13 07:19:15;;;;;;;;;;;;;;;10.31;100.00;99107.19;5055678;28;891;-57
2024/03/13 07:21:42;;;;;;;;;;;;;;;10.37;100.00;99111.03;5037446;28;939;-57
2024/03/13 07:24:08;;;;;;;;;;;;;;;10.32;100.00;99109.53;5055308;28;864;-57
2024/03/13 07:26:35;;;;;;;;;;;;;;;10.22;100.00;99105.72;5055191;28;931;-58
2024/03/13 07:29:04;;;;;;;;;;;;;;;10.12;100.00;99111.38;5055174;28;848;-58
2024/03/13 07:31:30;;;;;;;;;;;;;;;10.12;100.00;99111.38;5055144;28;1914;-58
2024/03/13 07:33:57;;;;;;;;;;;;;;;10.04;100.00;99104.41;5037153;28;1188;-58
2024/03/13 07:36:24;;;;;;;;;;;;;;;10.14;100.00;99109.75;5055151;28;895;-58
2024/03/13 07:38:52;;;;;;;;;;;;;;;10.11;100.00;99104.28;5055008;28;852;-58
2024/03/13 07:41:19;;;;;;;;;;;;;;;10.09;100.00;99114.97;5055009;28;892;-58
2024/03/13 07:43:45;;;;;;;;;;;;;;;10.09;100.00;99118.53;5054874;28;1374;-58
2024/03/13 07:46:12;;;;;;;;;;;;;;;10.11;100.00;99110.59;5054851;28;941;-57
2024/03/13 07:48:38;;;;;;;;;;;;;;;10.23;100.00;99114.78;5054820;28;852;-57
2024/03/13 07:51:08;;;;;;;;;;;;;;;10.41;100.00;99120.84;5054749;28;1898;-57
2024/03/13 07:53:35;;;;;;;;;;;;;;;10.48;100.00;99128.25;5054820;28;1219;-57
2024/03/13 07:56:02;;;;;;;;;;;;;;;10.25;100.00;99123.41;5055220;28;1104;-57
2024/03/13 07:58:29;;;;;;;;;;;;;;;10.09;100.00;99123.25;5055218;28;1280;-57
2024/03/13 08:00:55;;;;;;;;;;;;;;;10.01;100.00;99122.56;5054695;28;1199;-57
2024/03/13 08:03:22;;;;;;;;;;;;;;;9.92;100.00;99117.56;5054752;28;1445;-57
2024/03/13 08:05:48;;;;;;;;;;;;;;;9.91;100.00;99117.97;5054600;28;1285;-57
2024/03/13 08:08:14;;;;;;;;;;;;;;;9.88;100.00;99122.34;5054393;28;1295;-57
2024/03/13 08:10:42;;;;;;;;;;;;;;;9.84;100.00;99124.38;5054505;28;1890;-57
2024/03/13 08:13:10;;;;;;;;;;;;;;;9.86;100.00;99121.19;5054333;28;1332;-57
2024/03/13 08:15:37;;;;;;;;;;;;;;;9.83;100.00;99122.78;5054345;28;1241;-57
2024/03/13 08:18:04;;;;;;;;;;;;;;;9.72;100.00;99122.94;5054302;28;1259;-57
2024/03/13 08:20:32;;;;;;;;;;;;;;;9.61;100.00;99122.28;5053777;28;1243;-57
2024/03/13 08:22:59;;;;;;;;;;;;;;;9.58;100.00;99134.94;5054593;28;872;-57
2024/03/13 08:25:26;;;;;;;;;;;;;;;9.53;100.00;99121.56;5054297;28;947;-57
2024/03/13 08:27:52;;;;;;;;;;;;;;;9.38;100.00;99122.94;5054282;28;1275;-56
2024/03/13 08:30:18;;;;;;;;;;;;;;;9.23;100.00;99132.56;5054039;28;1914;-56
2024/03/13 08:32:45;;;;;;;;;;;;;;;9.13;100.00;99132.25;5054115;28;890;-57
2024/03/13 08:35:13;;;;;;;;;;;;;;;9.10;100.00;99130.31;5053838;28;907;-57
2024/03/13 08:37:42;;;;;;;;;;;;;;;9.10;100.00;99133.06;5053949;28;1308;-57
2024/03/13 08:40:11;;;;;;;;;;;;;;;9.11;100.00;99128.34;5054071;28;998;-57
2024/03/13 08:42:39;;;;;;;;;;;;;;;9.06;100.00;99129.56;5053736;28;930;-54
2024/03/13 08:45:08;;;;;;;;;;;;;;;9.09;100.00;99131.50;5053750;28;954;-55
2024/03/13 08:47:35;;;;;;;;;;;;;;;9.07;100.00;99128.38;5053582;28;904;-54
2024/03/13 08:50:03;;;;;;;;;;;;;;;9.08;100.00;99132.69;5053598;28;907;-55
2024/03/13 08:52:31;;;;;;;;;;;;;;;9.10;100.00;99132.28;5073576;28;1867;-56
2024/03/13 08:55:01;;;;;;;;;;;;;;;9.13;100.00;99137.78;5073485;28;863;-56
2024/03/13 08:57:28;;;;;;;;;;;;;;;9.18;100.00;99142.84;5073592;28;950;-55
2024/03/13 08:59:55;;;;;;;;;;;;;;;9.23;100.00;99138.06;5073370;28;922;-56
2024/03/13 09:02:22;;;;;;;;;;;;;;;9.24;100.00;99136.88;5073476;28;949;-56
2024/03/13 09:04:50;;;;;;;;;;;;;;;9.28;100.00;99143.13;5073457;28;1050;-56
2024/03/13 09:07:17;;;;;;;;;;;;;;;9.25;100.00;99136.47;5073347;28;879;-56
2024/03/13 09:09:43;;;;;;;;;;;;;;;9.24;100.00;99142.38;5073466;28;879;-56
2024/03/13 09:12:13;;;;;;;;;;;;;;;9.31;100.00;99139.56;5073508;28;2063;-55
2024/03/13 09:14:39;;;;;;;;;;;;;;;9.36;100.00;99148.16;5073027;28;1431;-55
2024/03/13 09:17:06;;;;;;;;;;;;;;;9.39;100.00;99139.09;5073223;28;832;-56
2024/03/13 09:19:34;;;;;;;;;;;;;;;9.24;100.00;99150.66;5073282;28;816;-55
2024/03/13 09:22:00;;;;;;;;;;;;;;;9.21;100.00;99146.75;5073060;28;926;-55
2024/03/13 09:24:27;;;;;;;;;;;;;;;9.17;100.00;99151.50;5073084;28;876;-55
2024/03/13 09:26:56;;;;;;;;;;;;;;;9.19;100.00;99144.38;5072864;28;931;-55
2024/03/13 09:29:23;;;;;;;;;;;;;;;9.26;100.00;99149.06;5073223;28;871;-55
2024/03/13 09:31:50;;;;;;;;;;;;;;;9.35;100.00;99154.88;5071725;28;1917;-56
2024/03/13 09:34:17;;;;;;;;;;;;;;;9.48;100.00;99157.13;5072827;28;914;-56
2024/03/13 09:36:43;;;;;;;;;;;;;;;9.72;100.00;99144.22;5072864;28;919;-57
2024/03/13 09:39:11;;;;;;;;;;;;;;;9.84;100.00;99151.19;5072800;28;840;-57
2024/03/13 09:41:38;;;;;;;;;;;;;;;9.95;100.00;99155.38;5072602;28;902;-56
2024/03/13 10:12:30;;;;;;;;;;;;;;;11.76;100.00;99167.91;5696758;22;1697;-58
2024/03/13 10:14:57;;;;;;;;;;;;;;;11.81;100.00;99170.94;5032384;28;934;-58
2024/03/13 10:17:28;;;;;;;;;;;;;;;11.94;100.00;99164.78;5032166;28;930;-58
2024/03/13 10:19:55;;;;;;;;;;;;;;;11.81;100.00;99170.94;5032096;28;843;-58
2024/03/13 10:22:22;;;;;;;;;;;;;;;11.73;100.00;99171.50;5032050;28;943;-58
2024/03/13 10:24:51;;;;;;;;;;;;;;;11.94;100.00;99167.56;5032070;28;914;-58
2024/03/13 10:27:20;;;;;;;;;;;;;;;11.95;100.00;99167.13;5032080;28;868;-57
2024/03/13 10:29:48;;;;;;;;;;;;;;;11.93;100.00;99163.25;5031930;28;852;-58
2024/03/13 10:32:16;;;;;;;;;;;;;;;11.97;100.00;99164.72;5031785;28;1973;-58
2024/03/13 10:34:43;;;;;;;;;;;;;;;12.08;100.00;99161.72;5031992;28;847;-58
2024/03/13 10:37:13;;;;;;;;;;;;;;;12.00;100.00;99163.84;5032036;28;919;-58
2024/03/13 10:39:42;;;;;;;;;;;;;;;11.82;100.00;99168.94;5031835;28;911;-58
2024/03/13 10:42:09;;;;;;;;;;;;;;;11.65;100.00;99162.56;5031449;28;888;-59
2024/03/13 10:44:35;;;;;;;;;;;;;;;11.80;100.00;99157.53;5031960;28;819;-58
2024/03/13 10:47:02;;;;;;;;;;;;;;;11.95;100.00;99160.78;5031661;28;936;-58
2024/03/13 10:49:31;;;;;;;;;;;;;;;12.09;100.00;99156.97;5031832;28;824;-58
2024/03/13 10:52:00;;;;;;;;;;;;;;;12.31;100.00;99155.28;5031482;28;1889;-59
2024/03/13 10:54:27;;;;;;;;;;;;;;;12.39;100.00;99153.13;5032097;28;824;-59
2024/03/13 10:56:53;;;;;;;;;;;;;;;12.38;100.00;99144.03;5031796;28;1238;-59
2024/03/13 10:59:24;;;;;;;;;;;;;;;12.39;100.00;99153.91;5031773;28;832;-60
2024/03/13 11:01:52;;;;;;;;;;;;;;;12.60;100.00;99140.78;5031704;28;981;-60
2024/03/13 11:04:18;;;;;;;;;;;;;;;12.69;100.00;99149.25;5031588;28;878;-59
2024/03/13 11:06:45;;;;;;;;;;;;;;;12.63;100.00;99145.44;5031664;28;1050;-59
2024/03/13 11:09:20;;;;;;;;;;;;;;;12.67;100.00;99146.13;5031843;28;935;-60
2024/03/13 11:11:56;;;;;;;;;;;;;;;12.51;100.00;99137.81;5031721;28;2340;-61
2024/03/13 11:14:26;;;;;;;;;;;;;;;12.53;100.00;99138.19;5031595;28;1250;-60
2024/03/13 11:17:03;;;;;;;;;;;;;;;12.32;100.00;99140.22;5031558;28;875;-60
2024/03/13 11:19:33;;;;;;;;;;;;;;;12.48;100.00;99127.59;5031505;28;828;-60
2024/03/13 11:22:01;;;;;;;;;;;;;;;12.85;100.00;99127.09;5031458;28;870;-60
2024/03/13 11:24:31;;;;;;;;;;;;;;;13.24;100.00;99130.06;5031778;28;836;-61
2024/03/13 11:27:05;;;;;;;;;;;;;;;13.24;100.00;99128.06;5031259;28;911;-61
2024/03/13 11:29:40;;;;;;;;;;;;;;;12.85;100.00;99123.53;5031822;28;910;-61
2024/03/13 11:32:08;;;;;;;;;;;;;;;13.05;100.00;99109.53;5031378;28;1976;-62
2024/03/13 11:34:36;;;;;;;;;;;;;;;12.64;100.00;99110.97;5031502;28;903;-60
2024/03/13 11:37:04;;;;;;;;;;;;;;;12.69;100.00;99112.44;5031463;28;891;-60
2024/03/13 11:39:31;;;;;;;;;;;;;;;12.65;100.00;99109.75;5031280;28;919;-60
2024/03/13 11:42:29;;;;;;;;;;;;;;;12.56;100.00;99115.91;5031311;28;832;-60
2024/03/13 11:45:18;;;;;;;;;;;;;;;12.85;100.00;99112.44;5011214;28;1495;-61
2024/03/13 11:47:49;;;;;;;;;;;;;;;13.14;100.00;99111.69;5031412;28;875;-61
2024/03/13 11:50:15;;;;;;;;;;;;;;;13.16;100.00;99090.59;5031272;28;835;-60
2024/03/13 11:53:00;;;;;;;;;;;;;;;12.90;100.00;99100.03;5031255;28;1945;-60
2024/03/13 11:55:27;;;;;;;;;;;;;;;13.10;100.00;99103.47;5033766;28;836;-60
2024/03/13 11:58:13;;;;;;;;;;;;;;;12.84;100.00;99099.78;5044394;28;1055;-60
2024/03/13 12:00:39;;;;;;;;;;;;;;;13.01;100.00;99108.84;5054836;28;1179;-60
2024/03/13 12:03:07;;;;;;;;;;;;;;;13.21;100.00;99103.97;5036831;28;1304;-60
2024/03/13 12:05:36;;;;;;;;;;;;;;;13.21;100.00;99101.19;5054725;28;875;-60
2024/03/13 12:08:04;;;;;;;;;;;;;;;12.95;100.00;99105.03;5054727;28;835;-60
2024/03/13 12:10:31;;;;;;;;;;;;;;;13.01;100.00;99108.84;5036790;28;1952;-61
2024/03/13 12:12:58;;;;;;;;;;;;;;;13.32;100.00;99106.47;5054552;28;1417;-62
2024/03/13 12:15:25;;;;;;;;;;;;;;;13.45;100.00;99098.19;5054822;28;914;-62
2024/03/13 12:17:55;;;;;;;;;;;;;;;13.73;100.00;99101.38;5054418;28;877;-62
2024/03/13 12:20:34;;;;;;;;;;;;;;;14.45;100.00;99084.09;5054482;28;886;-61
2024/03/13 12:23:06;;;;;;;;;;;;;;;14.48;100.00;99096.31;5054426;28;824;-62
2024/03/13 12:25:33;;;;;;;;;;;;;;;13.96;99.72;99087.22;5054360;28;827;-61
2024/03/13 12:28:01;;;;;;;;;;;;;;;13.42;100.00;99099.06;5054314;28;902;-62
2024/03/13 12:30:37;;;;;;;;;;;;;;;13.22;100.00;99090.88;5054056;28;1942;-61
2024/03/13 12:33:05;;;;;;;;;;;;;;;13.01;100.00;99094.97;5054204;28;823;-61
2024/03/13 12:35:34;;;;;;;;;;;;;;;12.93;100.00;99088.06;5053946;28;923;-61
2024/03/13 12:38:01;;;;;;;;;;;;;;;13.03;100.00;99095.31;5054294;28;839;-61
2024/03/13 12:40:28;;;;;;;;;;;;;;;13.07;100.00;99091.25;5054022;28;830;-61
2024/03/13 12:42:54;;;;;;;;;;;;;;;13.01;100.00;99097.75;5054195;28;902;-61
2024/03/13 12:45:21;;;;;;;;;;;;;;;13.33;100.00;99093.38;5053839;28;898;-60
2024/03/13 12:47:48;;;;;;;;;;;;;;;13.66;100.00;99097.59;5053845;28;824;-60
2024/03/13 12:50:16;;;;;;;;;;;;;;;13.93;100.00;99101.97;5053831;28;840;-60
2024/03/13 12:52:45;;;;;;;;;;;;;;;13.82;100.00;99091.16;5053443;28;1972;-60
2024/03/13 12:55:13;;;;;;;;;;;;;;;13.67;100.00;99101.91;5053936;28;1316;-60
2024/03/13 12:57:40;;;;;;;;;;;;;;;13.63;100.00;99089.34;5054059;28;831;-60
2024/03/13 13:00:14;;;;;;;;;;;;;;;13.69;100.00;99093.16;5054098;28;835;-61
2024/03/13 13:02:44;;;;;;;;;;;;;;;14.08;100.00;99093.97;5053577;28;824;-60
2024/03/13 13:05:14;;;;;;;;;;;;;;;14.61;97.29;99093.56;5053380;28;884;-60
2024/03/13 13:07:51;;;;;;;;;;;;;;;15.77;92.08;99091.94;5053430;28;816;-61
2024/03/13 13:10:21;;;;;;;;;;;;;;;16.74;88.08;99096.50;5053409;28;811;-62
2024/03/13 13:12:50;;;;;;;;;;;;;;;16.42;80.88;99095.00;5053123;28;1886;-60
2024/03/13 13:15:17;;;;;;;;;;;;;;;15.75;79.15;99079.69;5053672;28;875;-59
2024/03/13 13:17:44;;;;;;;;;;;;;;;15.13;80.50;99083.88;5053227;28;867;-60
2024/03/13 13:20:13;;;;;;;;;;;;;;;14.90;81.86;99080.25;5053136;28;895;-58
2024/03/13 13:22:45;;;;;;;;;;;;;;;14.54;82.14;99088.97;5053072;28;958;-58
2024/03/13 13:25:13;;;;;;;;;;;;;;;14.33;85.72;99093.22;5053113;28;842;-59
2024/03/13 13:27:42;;;;;;;;;;;;;;;14.06;83.41;99091.66;5053279;28;836;-60
2024/03/13 13:30:10;;;;;;;;;;;;;;;14.22;86.46;99090.78;5053016;28;820;-60
2024/03/13 13:32:37;;;;;;;;;;;;;;;14.37;87.79;99093.88;5052914;28;1963;-60
2024/03/13 13:35:06;;;;;;;;;;;;;;;14.53;82.16;99095.78;5052845;28;950;-61
2024/03/13 13:37:34;;;;;;;;;;;;;;;14.33;85.54;99098.78;5053791;28;810;-61
2024/03/13 13:40:05;;;;;;;;;;;;;;;14.15;82.38;99101.34;5052863;28;1006;-61
2024/03/13 13:42:31;;;;;;;;;;;;;;;14.48;84.72;99096.31;5052892;28;856;-61
2024/03/13 13:44:58;;;;;;;;;;;;;;;14.65;83.13;99103.34;5053015;28;884;-60
2024/03/13 13:47:24;;;;;;;;;;;;;;;14.32;82.96;99099.22;5052643;28;974;-60
2024/03/13 13:49:51;;;;;;;;;;;;;;;13.99;93.49;99091.09;5052672;28;890;-60
2024/03/13 13:52:18;;;;;;;;;;;;;;;13.98;100.00;99101.44;5052365;28;1910;-60
2024/03/13 13:54:46;;;;;;;;;;;;;;;14.12;96.95;99105.00;5052456;28;900;-60